Time;durP1;ratioP1;P1;durP2;ratioP2;P2;SDS_P1;SDS_P2;PMS_P1;PMS_P2;Temp;Humidity;BMP_temperature;BMP_pressure;BME280_temperature;BME280_humidity;BME280_pressure;Samples;Min_cycle;Max_cycle;Signal;HPM_P1;HPM_P2
2024/01/12 00:00:20;;;;;;;;;;;;;;;-4.05;92.35;102144.66;105980;1292;68177;-61
2024/01/12 00:03:06;;;;;;;16.20;7.40;;;;;;;-4.10;92.36;102147.34;105995;1291;71953;-61
2024/01/12 00:05:52;;;;;;;16.50;6.90;;;;;;;-4.14;92.32;102146.40;105981;1291;58463;-61
2024/01/12 00:08:38;;;;;;;21.50;8.80;;;;;;;-4.15;92.48;102149.85;106035;1290;59924;-61
2024/01/12 00:11:25;;;;;;;14.20;7.80;;;;;;;-4.16;92.49;102148.27;106036;1290;73759;-59
2024/01/12 00:14:12;;;;;;;;;;;;;;;-4.21;92.33;102149.13;105986;1292;67240;-61
2024/01/12 00:16:58;;;;;;;14.10;6.50;;;;;;;-4.22;92.55;102149.40;105876;1291;72467;-59
2024/01/12 00:19:45;;;;;;;;;;;;;;;-4.22;92.55;102152.73;106047;1291;58498;-62
2024/01/12 00:22:31;;;;;;;12.60;6.80;;;;;;;-4.24;92.46;102153.48;106038;1290;58863;-61
2024/01/12 00:25:17;;;;;;;18.30;8.20;;;;;;;-4.27;92.45;102154.27;105929;1291;73724;-61
2024/01/12 00:28:04;;;;;;;12.20;7.00;;;;;;;-4.31;92.36;102154.30;106063;1290;69000;-61
2024/01/12 00:30:50;;;;;;;13.50;7.70;;;;;;;-4.31;92.55;102152.45;105993;1292;71280;-61
2024/01/12 00:33:35;;;;;;;13.90;6.40;;;;;;;-4.30;92.64;102153.54;105513;1290;60431;-60
2024/01/12 00:36:22;;;;;;;13.90;6.60;;;;;;;-4.31;92.54;102149.59;104656;1291;60418;-60
2024/01/12 00:39:08;;;;;;;15.10;7.00;;;;;;;-4.38;92.36;102147.44;104669;1291;76575;-60
2024/01/12 00:41:55;;;;;;;17.60;8.10;;;;;;;-4.45;92.24;102146.94;104801;1292;69906;-61
2024/01/12 00:44:41;;;;;;;20.60;8.40;;;;;;;-4.51;92.29;102144.52;104736;1291;71271;-61
2024/01/12 00:47:27;;;;;;;15.80;8.20;;;;;;;-4.55;92.36;102145.23;104610;1291;60797;-60
2024/01/12 00:50:13;;;;;;;14.00;7.10;;;;;;;-4.61;92.27;102147.83;104775;1290;60354;-61
2024/01/12 00:53:00;;;;;;;13.90;7.40;;;;;;;-4.71;92.15;102147.17;104652;1291;72295;-60
2024/01/12 00:55:46;;;;;;;11.90;7.10;;;;;;;-4.80;92.16;102149.56;104629;1291;69953;-59
2024/01/12 00:58:33;;;;;;;14.90;7.10;;;;;;;-4.87;92.16;102152.77;104746;1290;71744;-59
2024/01/12 01:01:20;;;;;;;13.70;7.10;;;;;;;-4.92;92.18;102157.30;104718;1291;60474;-60
2024/01/12 01:04:07;;;;;;;13.10;6.20;;;;;;;-4.98;92.20;102157.88;104516;1290;59800;-62
2024/01/12 01:06:53;;;;;;;17.80;7.50;;;;;;;-5.03;92.11;102155.35;104708;1291;72277;-59
2024/01/12 01:09:39;;;;;;;11.60;5.90;;;;;;;-5.06;92.17;102154.27;104787;1291;68494;-60
2024/01/12 01:12:26;;;;;;;11.60;6.60;;;;;;;-5.10;92.22;102153.16;104626;1289;71898;-59
2024/01/12 01:15:14;;;;;;;13.40;7.00;;;;;;;-5.15;92.15;102153.83;104747;1291;60466;-59
2024/01/12 01:18:00;;;;;;;12.70;6.70;;;;;;;-5.17;92.23;102160.02;104533;1291;61747;-60
2024/01/12 01:20:46;;;;;;;16.60;6.50;;;;;;;-5.19;92.24;102163.61;104715;1292;76998;-60
2024/01/12 01:23:33;;;;;;;12.00;6.60;;;;;;;-5.22;92.09;102163.55;104641;1291;71835;-59
2024/01/12 01:26:19;;;;;;;15.60;6.90;;;;;;;-5.26;92.02;102163.81;104796;1291;75848;-60
2024/01/12 01:29:05;;;;;;;10.30;6.20;;;;;;;-5.29;92.11;102160.88;104788;1291;60378;-59
2024/01/12 01:31:52;;;;;;;13.30;6.00;;;;;;;-5.29;92.18;102158.84;104819;1291;60965;-60
2024/01/12 01:34:38;;;;;;;12.80;6.10;;;;;;;-5.29;92.26;102158.21;104621;1291;75244;-59
2024/01/12 01:37:24;;;;;;;13.60;6.30;;;;;;;-5.30;92.17;102165.86;104713;1291;67218;-60
2024/01/12 01:40:11;;;;;;;10.40;6.10;;;;;;;-5.35;92.08;102164.83;104780;1290;71376;-60
2024/01/12 01:43:06;;;;;;;13.90;7.20;;;;;;;-5.41;91.82;102163.35;105403;1293;61493;-59
2024/01/12 01:45:53;;;;;;;14.70;6.30;;;;;;;-5.46;91.96;102155.48;104756;1291;64184;-59
2024/01/12 01:48:39;;;;;;;12.00;6.20;;;;;;;-5.48;91.88;102149.06;105498;1291;72405;-59
2024/01/12 01:51:26;;;;;;;15.40;6.10;;;;;;;-5.52;91.71;102149.95;104766;1291;67271;-58
2024/01/12 01:54:13;;;;;;;13.20;6.40;;;;;;;-5.57;91.68;102146.71;105259;1290;319998;-59
2024/01/12 01:57:00;;;;;;;11.10;6.00;;;;;;;-5.61;91.65;102146.93;104622;1291;62086;-60
2024/01/12 01:59:47;;;;;;;10.50;6.30;;;;;;;-5.63;91.80;102152.51;105332;1291;59191;-59
2024/01/12 02:02:33;;;;;;;17.00;7.10;;;;;;;-5.62;91.89;102155.27;104707;1291;72525;-60
2024/01/12 02:05:21;;;;;;;15.10;7.10;;;;;;;-5.60;91.87;102158.96;104730;1295;68343;-60
2024/01/12 02:08:07;;;;;;;17.00;6.60;;;;;;;-5.65;91.78;102158.95;104587;1291;71138;-60
2024/01/12 02:10:55;;;;;;;14.30;7.90;;;;;;;-5.69;91.65;102162.97;104643;1291;60383;-60
2024/01/12 02:13:42;;;;;;;14.70;6.10;;;;;;;-5.74;91.60;102160.48;104695;1290;59729;-58
2024/01/12 02:16:28;;;;;;;15.80;7.00;;;;;;;-5.79;91.61;102164.14;104751;1291;72509;-60
2024/01/12 02:19:14;;;;;;;10.50;6.40;;;;;;;-5.83;91.53;102165.85;104722;1291;67476;-59
2024/01/12 02:22:01;;;;;;;12.10;6.30;;;;;;;-5.89;91.43;102170.92;104691;1291;73962;-59
2024/01/12 02:24:47;;;;;;;13.50;6.70;;;;;;;-5.91;91.61;102172.63;104543;1298;60591;-60
2024/01/12 02:27:34;;;;;;;14.60;6.80;;;;;;;-5.90;91.72;102174.04;104762;1291;60317;-59
2024/01/12 02:30:20;;;;;;;15.90;7.40;;;;;;;-5.97;91.51;102177.22;104678;1290;72918;-60
2024/01/12 02:33:07;;;;;;;15.40;7.10;;;;;;;-5.99;91.55;102171.85;104728;1291;68627;-59
2024/01/12 02:35:53;;;;;;;12.50;6.70;;;;;;;-6.03;91.53;102164.39;105211;1291;71255;-59
2024/01/12 02:38:40;;;;;;;16.30;7.40;;;;;;;-6.04;91.58;102158.06;104700;1291;60819;-60
2024/01/12 02:41:26;;;;;;;15.50;7.20;;;;;;;-6.07;91.51;102150.61;104777;1291;60468;-59
2024/01/12 02:44:12;;;;;;;13.70;7.10;;;;;;;-6.09;91.49;102152.33;104712;1295;75232;-59
2024/01/12 02:46:58;;;;;;;15.70;6.40;;;;;;;-6.14;91.41;102155.13;104674;1294;67277;-60
2024/01/12 02:49:45;;;;;;;18.30;7.30;;;;;;;-6.18;91.31;102157.82;104650;1292;75828;-59
2024/01/12 02:52:35;;;;;;;18.10;7.70;;;;;;;-6.22;91.31;102159.40;104668;1290;60576;-59
2024/01/12 02:55:21;;;;;;;16.60;8.20;;;;;;;-6.25;91.32;102161.35;104715;1290;61896;-59
2024/01/12 02:58:08;;;;;;;14.80;7.20;;;;;;;-6.26;91.31;102161.93;104486;1290;75438;-60
2024/01/12 03:00:54;;;;;;;14.70;6.80;;;;;;;-6.28;91.29;102160.27;104726;1291;70029;-59
2024/01/12 03:03:40;;;;;;;18.00;7.50;;;;;;;-6.31;91.29;102163.45;106030;1291;71254;-60
2024/01/12 03:06:26;;;;;;;14.30;7.20;;;;;;;-6.32;91.23;102161.82;105999;1290;58166;-61
2024/01/12 03:09:12;;;;;;;18.90;7.50;;;;;;;-6.33;91.22;102159.56;106033;1295;60064;-60
2024/01/12 03:11:58;;;;;;;13.40;7.00;;;;;;;-6.32;91.31;102158.98;105992;1291;73273;-61
2024/01/12 03:14:44;;;;;;;;;;;;;;;-6.29;91.29;102156.14;105986;1291;67387;-60
2024/01/12 03:17:30;;;;;;;12.60;5.90;;;;;;;-6.29;91.19;102153.02;105908;1291;71394;-61
2024/01/12 03:20:16;;;;;;;;;;;;;;;-6.32;91.01;102152.77;106011;1290;58803;-60
2024/01/12 03:23:02;;;;;;;9.30;6.40;;;;;;;-6.34;90.92;102153.63;105994;1290;58132;-61
2024/01/12 03:25:48;;;;;;;14.10;6.90;;;;;;;-6.36;90.90;102150.64;105999;1290;75030;-60
2024/01/12 03:28:37;;;;;;;16.60;7.40;;;;;;;-6.41;90.80;102149.23;106013;1290;67665;-60
2024/01/12 03:31:23;;;;;;;13.80;6.50;;;;;;;-6.41;90.89;102149.04;105976;1291;72553;-60
2024/01/12 03:34:09;;;;;;;;;;;;;;;-6.41;90.89;102150.04;106040;1290;58537;-61
2024/01/12 03:36:55;;;;;;;13.10;6.80;;;;;;;-6.37;91.04;102144.17;106002;1290;59177;-61
2024/01/12 03:39:40;;;;;;;;;;;;;;;-6.32;91.16;102139.72;105465;1290;73394;-59
2024/01/12 03:42:27;;;;;;;13.90;7.30;;;;;;;-6.25;91.29;102139.89;104697;1291;67260;-57
2024/01/12 03:45:13;;;;;;;15.50;7.40;;;;;;;-6.18;91.51;102138.87;104728;1291;71210;-59
2024/01/12 03:47:59;;;;;;;17.10;8.30;;;;;;;-6.11;91.61;102133.00;104670;1291;60565;-60
2024/01/12 03:50:45;;;;;;;18.00;8.50;;;;;;;-6.08;91.62;102127.92;104752;1293;60349;-60
2024/01/12 03:53:32;;;;;;;16.70;8.40;;;;;;;-6.06;91.53;102132.77;104743;1291;77679;-60
2024/01/12 03:56:18;;;;;;;21.60;9.10;;;;;;;-6.01;91.67;102131.58;104737;1291;67365;-60
2024/01/12 03:59:04;;;;;;;17.90;9.60;;;;;;;-5.94;91.79;102131.30;104722;1291;71266;-59
2024/01/12 04:01:50;;;;;;;24.40;9.40;;;;;;;-5.87;91.88;102126.75;104678;1291;60942;-59
2024/01/12 04:04:37;;;;;;;17.20;9.90;;;;;;;-5.80;91.99;102128.63;104630;1292;60133;-59
2024/01/12 04:07:23;;;;;;;19.00;10.10;;;;;;;-5.74;92.11;102129.58;104697;1291;75175;-60
2024/01/12 04:10:09;;;;;;;20.80;9.70;;;;;;;-5.66;92.13;102139.05;104770;1296;67244;-59
2024/01/12 04:12:56;;;;;;;17.30;9.30;;;;;;;-5.58;92.16;102144.98;104721;1291;72077;-60
2024/01/12 04:15:43;;;;;;;19.60;10.70;;;;;;;-5.51;92.23;102151.22;104688;1292;62058;-60
2024/01/12 04:18:32;;;;;;;16.90;9.70;;;;;;;-5.44;92.30;102152.06;105996;1291;58208;-61
2024/01/12 04:21:17;;;;;;;13.20;8.20;;;;;;;-5.38;92.20;102150.86;105991;1291;72650;-61
2024/01/12 04:24:03;;;;;;;;;;;;;;;-5.30;92.11;102146.81;106016;1290;67190;-60
2024/01/12 04:26:49;;;;;;;21.30;9.80;;;;;;;-5.22;92.30;102139.02;106009;1295;72655;-61
2024/01/12 04:29:35;;;;;;;;;;;;;;;-5.13;92.19;102135.11;106019;1291;59930;-61
2024/01/12 04:32:21;;;;;;;17.30;9.20;;;;;;;-5.04;92.05;102127.55;106018;1290;58906;-61
2024/01/12 04:35:07;;;;;;;;;;;;;;;-4.98;91.97;102120.36;106045;1291;74123;-61
2024/01/12 04:37:53;;;;;;;19.30;7.80;;;;;;;-4.93;92.00;102116.50;105981;1291;67995;-61
2024/01/12 04:40:39;;;;;;;;;;;;;;;-4.86;92.02;102114.52;106010;1290;71381;-61
2024/01/12 04:43:25;;;;;;;17.60;8.00;;;;;;;-4.78;92.19;102116.27;105912;1290;173392;-60
2024/01/12 04:46:11;;;;;;;;;;;;;;;-4.68;92.19;102116.79;106019;1290;58774;-61
2024/01/12 04:48:57;;;;;;;15.60;6.80;;;;;;;-4.60;92.35;102117.15;106028;1291;73712;-60
2024/01/12 04:51:43;;;;;;;19.00;8.30;;;;;;;-4.56;92.24;102119.23;105985;1290;68554;-60
2024/01/12 04:54:29;;;;;;;;;;;;;;;-4.54;92.05;102117.52;106006;1290;72151;-61
2024/01/12 04:57:15;;;;;;;16.90;8.20;;;;;;;-4.53;92.14;102118.77;106026;1290;58720;-61
2024/01/12 05:00:01;;;;;;;12.80;7.80;;;;;;;-4.48;92.17;102113.92;106024;1290;59036;-61
2024/01/12 05:02:51;;;;;;;12.80;7.80;;;;;;;-4.43;92.27;102107.72;65124;1290;10073621;-61
2024/01/12 05:05:57;;;;;;;12.80;7.70;;;;;;;-4.39;92.17;102108.13;91417;1292;20063449;-61
2024/01/12 05:08:43;;;;;;;17.90;7.60;;;;;;;-4.37;92.10;102105.11;106167;1291;72554;-59
2024/01/12 05:11:29;;;;;;;;;;;;;;;-4.34;92.07;102103.45;106169;1290;58224;-61
2024/01/12 05:14:15;;;;;;;11.80;7.40;;;;;;;-4.32;92.12;102107.62;106122;1289;60783;-60
2024/01/12 05:17:01;;;;;;;14.60;7.90;;;;;;;-4.32;92.10;102106.41;106199;1289;73355;-60
2024/01/12 05:19:46;;;;;;;;;;;;;;;-4.36;92.02;102106.20;106225;1289;67405;-61
2024/01/12 05:22:35;;;;;;;13.60;6.30;;;;;;;-4.35;92.02;102107.06;106166;1292;72325;-60
2024/01/12 05:25:21;;;;;;;13.30;6.90;;;;;;;-4.33;92.09;102106.02;106164;1290;59080;-61
2024/01/12 05:28:07;;;;;;;;;;;;;;;-4.30;92.18;102106.86;106194;1290;60574;-61
2024/01/12 05:30:53;;;;;;;10.10;6.10;;;;;;;-4.27;92.29;102112.48;106181;1289;72987;-61
2024/01/12 05:33:39;;;;;;;;;;;;;;;-4.25;92.41;102112.00;106195;1289;67436;-61
2024/01/12 05:36:25;;;;;;;11.00;4.90;;;;;;;-4.21;92.36;102117.79;106134;1289;72547;-61
2024/01/12 05:39:11;;;;;;;11.60;4.40;;;;;;;-4.19;92.36;102124.49;106227;1289;58523;-59
2024/01/12 05:41:57;;;;;;;;;;;;;;;-4.17;92.41;102125.16;106247;1288;59578;-60
2024/01/12 05:44:43;;;;;;;8.50;4.90;;;;;;;-4.13;92.54;102126.21;106202;1288;72996;-61
2024/01/12 05:47:29;;;;;;;;;;;;;;;-4.13;92.47;102123.69;106076;1288;67432;-61
2024/01/12 05:50:15;;;;;;;6.90;4.20;;;;;;;-4.15;92.39;102128.44;106051;1291;72456;-61
2024/01/12 05:53:01;;;;;;;;;;;;;;;-4.18;92.22;102131.63;106082;1292;59512;-61
2024/01/12 05:55:48;;;;;;;8.60;3.80;;;;;;;-4.19;92.24;102131.39;106156;1289;58744;-61
2024/01/12 05:58:34;;;;;;;7.70;3.90;;;;;;;-4.19;92.25;102136.27;106145;1291;73102;-61
2024/01/12 06:01:20;;;;;;;9.80;3.60;;;;;;;-4.22;92.22;102139.81;106072;1289;68978;-61
2024/01/12 06:04:06;;;;;;;;;;;;;;;-4.22;92.34;102143.84;106089;1290;71233;-60
2024/01/12 06:06:52;;;;;;;8.60;4.00;;;;;;;-4.21;92.33;102146.07;106170;1290;58335;-61
2024/01/12 06:09:39;;;;;;;8.10;4.20;;;;;;;-4.21;92.36;102150.27;106214;1292;59593;-61
2024/01/12 06:12:25;;;;;;;5.00;2.90;;;;;;;-4.22;92.26;102148.05;106194;1289;74195;-61
2024/01/12 06:15:12;;;;;;;5.00;2.90;;;;;;;-4.21;92.39;102151.98;69734;1296;10002968;-62
2024/01/12 06:18:18;;;;;;;6.40;3.80;;;;;;;-4.21;92.39;102143.87;83999;1290;20063726;-63
2024/01/12 06:21:04;;;;;;;5.00;3.00;;;;;;;-4.17;92.48;102142.64;106032;1291;58450;-62
2024/01/12 06:24:11;;;;;;;8.30;4.40;;;;;;;-4.11;92.58;102143.21;47392;1291;20059573;-62
2024/01/12 06:26:57;;;;;;;9.50;4.00;;;;;;;-4.07;92.60;102149.02;102186;1294;5003443;-62
2024/01/12 06:29:43;;;;;;;6.20;4.00;;;;;;;-4.04;92.68;102151.08;106047;1291;66304;-62
2024/01/12 06:32:29;;;;;;;9.70;4.20;;;;;;;-4.02;92.55;102154.41;106056;1291;72566;-62
2024/01/12 06:35:15;;;;;;;7.70;4.30;;;;;;;-4.01;92.65;102156.39;106042;1290;59024;-63
2024/01/12 06:38:02;;;;;;;7.40;3.50;;;;;;;-3.96;92.64;102152.94;105858;1290;59245;-61
2024/01/12 06:40:48;;;;;;;8.10;3.00;;;;;;;-3.91;92.74;102156.32;104807;1291;73834;-61
2024/01/12 06:43:34;;;;;;;5.90;3.50;;;;;;;-3.87;92.76;102152.23;104713;1291;67370;-61
2024/01/12 06:46:20;;;;;;;7.10;4.00;;;;;;;-3.84;92.73;102152.44;104811;1294;71395;-60
2024/01/12 06:49:07;;;;;;;7.60;3.40;;;;;;;-3.83;92.77;102151.31;104647;1292;60299;-60
2024/01/12 06:51:54;;;;;;;8.50;3.90;;;;;;;-3.81;92.82;102143.51;104803;1290;60326;-61
2024/01/12 06:54:44;;;;;;;8.10;3.50;;;;;;;-3.79;92.84;102144.14;104779;1291;73457;-62
2024/01/12 06:57:30;;;;;;;7.70;3.40;;;;;;;-3.78;92.91;102140.70;106029;1291;68361;-62
2024/01/12 07:00:16;;;;;;;7.00;3.80;;;;;;;-3.75;92.94;102131.98;106023;1291;71363;-62
2024/01/12 07:03:02;;;;;;;5.50;3.70;;;;;;;-3.72;92.90;102129.99;105953;1290;59088;-63
2024/01/12 07:05:48;;;;;;;6.30;3.70;;;;;;;-3.69;92.86;102123.92;106110;1294;59331;-58
2024/01/12 07:08:34;;;;;;;;;;;;;;;-3.68;92.79;102124.33;106046;1290;73449;-63
2024/01/12 07:11:20;;;;;;;9.70;3.60;;;;;;;-3.64;92.97;102130.80;106051;1290;68158;-62
2024/01/12 07:14:06;;;;;;;11.80;3.90;;;;;;;-3.59;92.97;102139.52;106035;1290;73255;-62
2024/01/12 07:16:52;;;;;;;7.60;3.90;;;;;;;-3.54;92.92;102149.64;106056;1290;58310;-63
2024/01/12 07:19:38;;;;;;;7.60;3.70;;;;;;;-3.48;93.05;102145.18;106074;1291;58927;-62
2024/01/12 07:22:24;;;;;;;8.50;4.10;;;;;;;-3.43;92.95;102138.29;106048;1291;74176;-62
2024/01/12 07:25:11;;;;;;;6.50;3.90;;;;;;;-3.39;92.89;102139.21;106051;1291;68187;-62
2024/01/12 07:27:57;;;;;;;7.00;3.50;;;;;;;-3.36;92.95;102144.61;105900;1290;72006;-63
2024/01/12 07:30:43;;;;;;;;;;;;;;;-3.29;93.03;102141.17;106039;1290;58171;-62
2024/01/12 07:33:29;;;;;;;7.80;3.70;;;;;;;-3.22;93.11;102139.28;106066;1291;58428;-62
2024/01/12 07:36:15;;;;;;;7.30;3.40;;;;;;;-3.15;93.15;102127.06;106037;1290;72463;-62
2024/01/12 07:39:01;;;;;;;4.30;3.40;;;;;;;-3.12;93.03;102115.97;105995;1290;68589;-63
2024/01/12 07:41:47;;;;;;;8.40;3.10;;;;;;;-3.09;93.00;102112.08;105868;1292;71453;-62
2024/01/12 07:44:33;;;;;;;6.40;3.30;;;;;;;-3.06;93.09;102097.80;106033;1295;58189;-62
2024/01/12 07:47:19;;;;;;;;;;;;;;;-3.04;93.12;102100.29;106034;1291;59394;-62
2024/01/12 07:50:06;;;;;;;6.70;3.20;;;;;;;-2.98;93.25;102111.74;106041;1291;73080;-62
2024/01/12 07:52:52;;;;;;;7.60;3.50;;;;;;;-2.95;93.21;102116.48;105551;1291;67986;-61
2024/01/12 07:55:38;;;;;;;7.70;3.40;;;;;;;-2.90;93.28;102115.13;104749;1294;71360;-61
2024/01/12 07:58:25;;;;;;;8.90;3.70;;;;;;;-2.87;93.28;102104.02;104614;1291;60328;-61
2024/01/12 08:01:13;;;;;;;6.90;4.70;;;;;;;-2.82;93.30;102099.92;104624;1291;61867;-60
2024/01/12 08:03:59;;;;;;;11.30;4.80;;;;;;;-2.80;93.42;102098.87;106082;1290;72436;-62
2024/01/12 08:06:44;;;;;;;8.30;4.80;;;;;;;-2.78;93.45;102098.33;106056;1291;67356;-62
2024/01/12 08:09:30;;;;;;;9.80;5.80;;;;;;;-2.78;93.63;102094.33;106151;1290;71255;-63
2024/01/12 08:12:16;;;;;;;8.80;5.70;;;;;;;-2.77;93.66;102093.70;105859;1293;58219;-62
2024/01/12 08:15:03;;;;;;;9.70;6.30;;;;;;;-2.70;93.56;102097.47;105934;1295;60026;-62
2024/01/12 08:17:48;;;;;;;;;;;;;;;-2.66;93.56;102093.17;106069;1291;74027;-62
2024/01/12 08:20:34;;;;;;;15.60;8.20;;;;;;;-2.62;93.70;102082.79;106037;1291;67513;-62
2024/01/12 08:23:20;;;;;;;;;;;;;;;-2.57;93.69;102079.50;106038;1291;73788;-62
2024/01/12 08:26:06;;;;;;;20.80;9.40;;;;;;;-2.46;93.84;102086.77;106044;1291;58329;-62
2024/01/12 08:28:55;;;;;;;19.80;10.40;;;;;;;-2.34;93.79;102084.95;106055;1291;59065;-62
2024/01/12 08:31:42;;;;;;;25.50;13.50;;;;;;;-2.26;93.75;102088.66;104730;1292;74315;-61
2024/01/12 08:34:28;;;;;;;20.50;10.30;;;;;;;-2.14;93.83;102091.02;104804;1291;67709;-60
2024/01/12 08:37:14;;;;;;;22.30;11.50;;;;;;;-2.10;93.72;102087.89;104791;1291;71263;-61
2024/01/12 08:40:01;;;;;;;;;;;;;;;-2.12;93.70;102090.48;104929;1292;60444;-61
2024/01/12 08:42:48;;;;;;;25.80;13.00;;;;;;;-2.09;93.76;102081.02;104746;1291;62858;-60
2024/01/12 08:45:34;;;;;;;36.60;17.20;;;;;;;-2.09;93.72;102081.90;105995;1290;72484;-61
2024/01/12 08:48:20;;;;;;;;;;;;;;;-2.08;93.68;102079.23;104769;1291;66253;-60
2024/01/12 08:51:06;;;;;;;21.50;11.10;;;;;;;-2.08;93.66;102082.59;104823;1289;71195;-62
2024/01/12 08:53:52;;;;;;;;;;;;;;;-2.07;93.69;102075.41;104639;1291;60318;-60
2024/01/12 08:56:39;;;;;;;21.60;10.70;;;;;;;-2.10;93.68;102073.91;104733;1296;60466;-60
2024/01/12 08:59:27;;;;;;;20.20;11.70;;;;;;;-2.14;93.61;102078.03;104635;1296;78125;-60
2024/01/12 09:02:14;;;;;;;24.20;13.00;;;;;;;-2.22;93.71;102078.92;104741;1292;67284;-60
2024/01/12 09:05:02;;;;;;;25.50;14.50;;;;;;;-2.24;93.71;102082.14;104584;1291;76899;-60
2024/01/12 09:07:49;;;;;;;30.70;15.80;;;;;;;-2.15;93.89;102085.92;104662;1291;59627;-59
2024/01/12 09:10:35;;;;;;;32.00;16.00;;;;;;;-2.13;93.86;102084.00;104654;1291;61336;-61
2024/01/12 09:13:21;;;;;;;35.30;16.00;;;;;;;-1.96;94.13;102082.79;104651;1291;72458;-60
2024/01/12 09:16:09;;;;;;;35.30;15.90;;;;;;;-1.77;94.25;102078.33;104652;1294;67313;-59
2024/01/12 09:18:55;;;;;;;35.90;16.30;;;;;;;-1.61;94.07;102070.60;104598;1291;71317;-60
2024/01/12 09:21:41;;;;;;;;;;;;;;;-1.58;93.93;102060.10;104640;1291;60337;-62
2024/01/12 09:24:28;;;;;;;39.80;19.10;;;;;;;-1.50;93.96;102057.70;104688;1295;60454;-62
2024/01/12 09:27:14;;;;;;;;;;;;;;;-1.17;93.97;102050.72;104651;1291;74531;-62
2024/01/12 09:30:00;;;;;;;32.50;15.60;;;;;;;-0.92;93.95;102047.66;104693;1293;67254;-61
2024/01/12 09:32:46;;;;;;;;;;;;;;;-0.66;93.72;102046.27;104668;1291;70170;-60
2024/01/12 09:35:33;;;;;;;38.60;16.90;;;;;;;-0.54;93.73;102039.11;104692;1290;60468;-61
2024/01/12 09:38:19;;;;;;;;;;;;;;;-0.57;92.94;102042.89;104675;1296;62883;-60
2024/01/12 09:41:08;;;;;;;42.60;19.10;;;;;;;-0.65;93.21;102046.03;104681;1291;74945;-62
2024/01/12 09:43:58;;;;;;;45.90;21.70;;;;;;;-0.60;93.50;102047.66;104692;1291;68471;-59
2024/01/12 09:46:56;;;;;;;41.50;21.30;;;;;;;-0.54;93.66;102049.79;105270;1295;73015;-60
2024/01/12 09:49:43;;;;;;;43.50;19.20;;;;;;;-0.40;93.41;102044.95;104741;1291;60016;-60
2024/01/12 09:52:29;;;;;;;35.70;18.10;;;;;;;-0.55;93.27;102042.45;104697;1291;60658;-59
2024/01/12 09:55:16;;;;;;;34.20;16.50;;;;;;;-0.60;93.55;102035.60;104704;1294;72369;-60
2024/01/12 09:58:04;;;;;;;34.60;18.00;;;;;;;-0.64;93.37;102032.54;104558;1291;67741;-58
2024/01/12 10:00:51;;;;;;;32.50;17.30;;;;;;;-0.76;93.35;102032.41;104628;1296;73494;-59
2024/01/12 10:03:38;;;;;;;38.90;19.70;;;;;;;-0.83;93.37;102028.64;104667;1293;60441;-60
2024/01/12 10:06:25;;;;;;;34.50;18.10;;;;;;;-1.00;93.27;102016.09;104635;1292;60372;-60
2024/01/12 10:09:11;;;;;;;30.30;16.50;;;;;;;-1.08;93.55;102015.16;104637;1291;72500;-60
2024/01/12 10:11:57;;;;;;;;;;;;;;;-1.18;93.50;102017.96;104685;1291;67217;-59
2024/01/12 10:14:44;;;;;;;29.60;14.40;;;;;;;-1.28;93.64;102007.29;104628;1291;71365;-60
2024/01/12 10:17:30;;;;;;;;;;;;;;;-1.32;93.86;101997.27;104645;1291;60918;-60
2024/01/12 10:20:17;;;;;;;31.80;15.10;;;;;;;-1.42;93.92;101992.50;104596;1290;60197;-58
2024/01/12 10:23:04;;;;;;;32.00;15.10;;;;;;;-1.45;94.18;101996.41;104512;1294;73340;-60
2024/01/12 10:26:03;;;;;;;34.40;15.70;;;;;;;-1.42;94.11;101985.55;104666;1292;67681;-59
2024/01/12 10:28:50;;;;;;;27.70;13.80;;;;;;;-1.33;94.34;101975.89;105896;1291;72559;-60
2024/01/12 10:31:41;;;;;;;29.10;14.60;;;;;;;-1.14;94.57;101982.52;105953;1292;58500;-61
2024/01/12 10:34:33;;;;;;;34.80;15.70;;;;;;;-1.13;94.18;101973.95;105953;1291;60989;-61
2024/01/12 10:37:20;;;;;;;28.30;14.50;;;;;;;-1.17;94.26;101960.34;105937;1291;73149;-61
2024/01/12 10:40:07;;;;;;;29.40;15.00;;;;;;;-1.10;94.27;101949.90;105821;1294;66949;-61
2024/01/12 10:42:56;;;;;;;29.90;14.60;;;;;;;-1.07;94.43;101943.98;105939;1291;72627;-61
2024/01/12 10:45:51;;;;;;;287.10;197.20;;;;;;;-1.06;94.46;101940.65;105935;1291;58248;-62
2024/01/12 10:48:58;;;;;;;31.60;14.70;;;;;;;-0.99;94.48;101936.41;105925;1291;60196;-62
2024/01/12 10:52:21;;;;;;;22.50;12.00;;;;;;;-0.96;94.51;101932.80;105917;1294;72538;-61
2024/01/12 10:55:10;;;;;;;24.10;11.70;;;;;;;-0.97;94.51;101920.25;105936;1291;67254;-62
2024/01/12 10:57:56;;;;;;;27.50;14.30;;;;;;;-0.96;94.44;101912.54;105943;1289;71373;-62
2024/01/12 11:00:43;;;;;;;24.90;13.60;;;;;;;-1.04;94.38;101903.67;105968;1293;58610;-62
2024/01/12 11:03:29;;;;;;;30.10;13.40;;;;;;;-1.05;94.61;101897.90;106023;1291;60213;-62
2024/01/12 11:06:16;;;;;;;32.30;14.90;;;;;;;-1.03;94.69;101888.80;105895;1294;72701;-61
2024/01/12 11:09:04;;;;;;;49.80;31.40;;;;;;;-0.97;94.87;101880.30;105969;1291;68582;-62
2024/01/12 11:12:11;;;;;;;25.40;12.20;;;;;;;-0.93;95.04;101888.63;105271;1294;70424;-61
2024/01/12 11:14:58;;;;;;;25.40;12.20;;;;;;;-0.93;94.88;101889.63;54802;1295;20001943;-62
2024/01/12 11:18:06;;;;;;;24.60;12.90;;;;;;;-0.96;94.81;101895.58;98569;1291;10067698;-63
2024/01/12 11:21:03;;;;;;;25.60;12.60;;;;;;;-1.04;94.90;101897.92;105851;1291;58578;-62
2024/01/12 11:23:49;;;;;;;31.00;14.10;;;;;;;-1.06;95.04;101905.63;105972;1293;59086;-62
2024/01/12 11:26:35;;;;;;;23.90;12.30;;;;;;;-1.08;95.07;101909.06;105965;1291;72616;-61
2024/01/12 11:29:21;;;;;;;25.00;14.50;;;;;;;-1.09;95.03;101903.96;105940;1291;67493;-62
2024/01/12 11:32:08;;;;;;;24.80;12.70;;;;;;;-1.07;95.17;101911.15;105986;1291;71959;-62
2024/01/12 11:35:09;;;;;;;24.70;12.90;;;;;;;-1.07;95.26;101917.92;105957;1291;58683;-62
2024/01/12 11:38:05;;;;;;;28.20;14.50;;;;;;;-1.06;95.19;101906.31;105993;1291;59153;-62
2024/01/12 11:40:51;;;;;;;37.10;16.90;;;;;;;-1.04;95.27;101900.61;105918;1291;72526;-61
2024/01/12 11:43:37;;;;;;;23.60;12.20;;;;;;;-1.05;95.37;101896.51;105970;1292;67437;-60
2024/01/12 11:46:24;;;;;;;26.70;12.80;;;;;;;-1.08;95.31;101881.16;105921;1294;71368;-61
2024/01/12 11:49:10;;;;;;;27.40;13.20;;;;;;;-1.06;95.41;101878.70;105983;1292;57900;-61
2024/01/12 11:52:04;;;;;;;25.10;12.10;;;;;;;-1.05;95.52;101870.30;105970;1291;58117;-61
2024/01/12 11:54:50;;;;;;;24.20;13.90;;;;;;;-1.04;95.61;101859.84;105932;1292;73806;-62
2024/01/12 11:57:37;;;;;;;28.20;14.50;;;;;;;-1.05;95.76;101856.73;105949;1291;67731;-60
2024/01/12 12:00:23;;;;;;;30.00;14.90;;;;;;;-1.03;95.72;101857.36;105959;1292;73067;-60
2024/01/12 12:03:10;;;;;;;29.10;14.10;;;;;;;-1.03;95.79;101835.70;105952;1290;58139;-61
2024/01/12 12:05:56;;;;;;;;;;;;;;;-1.04;95.71;101832.61;105949;1295;58998;-60
2024/01/12 12:08:42;;;;;;;;;;;;;;;-1.02;96.02;101829.49;105973;1292;73701;-61
2024/01/12 12:11:29;;;;;;;77.50;40.10;;;;;;;-1.08;96.10;101826.15;105959;1290;68768;-60
2024/01/12 12:14:15;;;;;;;28.30;14.50;;;;;;;-1.07;96.42;101818.09;105849;1291;72675;-60
2024/01/12 12:17:01;;;;;;;29.70;13.30;;;;;;;-1.04;96.47;101817.87;105940;1293;59156;-61
2024/01/12 12:19:47;;;;;;;30.60;15.80;;;;;;;-0.97;96.49;101810.77;105932;1297;58957;-60
2024/01/12 12:22:33;;;;;;;28.50;14.90;;;;;;;-0.89;96.51;101811.66;105898;1296;73690;-60
2024/01/12 12:25:19;;;;;;;;;;;;;;;-0.85;96.48;101812.20;105935;1295;68287;-59
2024/01/12 12:28:07;;;;;;;24.60;14.10;;;;;;;-0.86;96.37;101810.10;104608;1298;76150;-59
2024/01/12 12:30:54;;;;;;;24.40;14.00;;;;;;;-0.77;96.43;101812.13;104640;1289;61144;-60
2024/01/12 12:33:45;;;;;;;21.60;12.00;;;;;;;-0.68;96.43;101806.11;104721;1291;61133;-59
2024/01/12 12:36:32;;;;;;;25.90;10.80;;;;;;;-0.68;96.27;101799.84;104656;1292;73833;-60
2024/01/12 12:39:18;;;;;;;24.30;13.00;;;;;;;-0.70;96.19;101797.40;104739;1291;69172;-59
2024/01/12 12:42:05;;;;;;;;;;;;;;;-0.73;96.19;101802.13;104554;1296;71220;-60
2024/01/12 12:44:51;;;;;;;160.40;131.50;;;;;;;-0.77;96.13;101797.58;104656;1291;61166;-60
2024/01/12 12:47:56;;;;;;;160.40;131.50;;;;;;;-0.80;96.22;101797.55;45262;1292;20001739;-61